createdAt,value
2023-06-07T00:00:27.963Z,102102.00
2023-06-07T00:10:50.557Z,102105.00
2023-06-07T00:21:13.860Z,102113.00
2023-06-07T00:31:35.723Z,102118.00
2023-06-07T00:41:58.810Z,102108.00
2023-06-07T00:52:20.261Z,102112.00
2023-06-07T01:02:47.424Z,102108.00
2023-06-07T01:13:10.638Z,102114.00
2023-06-07T01:23:36.072Z,102117.00
2023-06-07T01:33:58.024Z,102113.00
2023-06-07T01:44:22.064Z,102116.00
2023-06-07T01:54:45.414Z,102109.00
2023-06-07T02:05:14.182Z,102096.00
2023-06-07T02:15:37.760Z,102104.00
2023-06-07T02:26:03.593Z,102099.00
2023-06-07T02:36:26.549Z,102094.00
2023-06-07T02:46:49.780Z,102092.00
2023-06-07T02:57:11.618Z,102084.00
2023-06-07T03:07:35.889Z,102101.00
2023-06-07T03:17:59.966Z,102095.00
2023-06-07T03:28:23.882Z,102108.00
2023-06-07T03:38:46.137Z,102107.00
2023-06-07T03:49:10.693Z,102104.00
2023-06-07T03:59:33.427Z,102094.00
2023-06-07T04:09:57.946Z,102079.00
2023-06-07T04:20:19.610Z,102084.00
2023-06-07T04:30:45.464Z,102075.00
2023-06-07T04:41:08.550Z,102090.00
2023-06-07T04:51:39.755Z,102077.00
2023-06-07T05:02:03.063Z,102076.00
2023-06-07T05:12:28.089Z,102081.00
2023-06-07T05:22:51.592Z,102067.00
2023-06-07T05:33:15.033Z,102094.00
2023-06-07T05:43:38.406Z,102092.00
2023-06-07T05:54:02.605Z,102088.00
2023-06-07T06:04:29.370Z,102096.00
2023-06-07T06:14:53.278Z,102094.00
2023-06-07T06:25:15.158Z,102095.00
2023-06-07T06:35:38.099Z,102102.00
2023-06-07T06:45:59.671Z,102090.00
2023-06-07T06:56:24.392Z,102094.00
2023-06-07T07:06:46.247Z,102088.00
2023-06-07T07:17:09.290Z,102079.00
2023-06-07T07:27:31.036Z,102073.00
2023-06-07T07:37:55.683Z,102084.00
2023-06-07T07:48:17.513Z,102075.00
2023-06-07T07:58:40.211Z,102064.00
2023-06-07T08:09:03.878Z,102030.00
2023-06-07T08:19:27.384Z,102040.00
2023-06-07T08:29:50.322Z,102043.00
2023-06-07T08:40:19.365Z,102027.00
2023-06-07T08:50:42.527Z,102027.00
2023-06-07T09:01:06.496Z,102011.00
2023-06-07T09:11:28.534Z,102011.00
2023-06-07T09:21:51.794Z,102011.00
2023-06-07T09:32:20.337Z,101995.00
2023-06-07T09:42:44.690Z,102004.00
2023-06-07T09:53:06.008Z,101995.00
2023-06-07T10:03:29.473Z,101995.00
2023-06-07T10:13:55.100Z,101976.00
2023-06-07T10:24:22.912Z,101963.00
2023-06-07T10:34:49.019Z,101974.00
2023-06-07T10:45:16.508Z,101934.00
2023-06-07T10:55:38.235Z,101942.00
2023-06-07T11:06:10.460Z,101958.00
2023-06-07T11:16:39.735Z,101941.00
2023-06-07T11:27:02.917Z,101929.00
2023-06-07T11:37:25.512Z,101932.00
2023-06-07T11:47:52.495Z,101916.00
2023-06-07T11:58:16.073Z,101906.00
2023-06-07T12:08:39.658Z,101898.00
2023-06-07T12:19:01.163Z,101872.00
2023-06-07T12:29:30.731Z,101909.00
2023-06-07T12:39:52.435Z,101878.00
2023-06-07T12:50:15.615Z,101889.00
2023-06-07T13:00:48.001Z,101877.00
2023-06-07T13:11:11.017Z,101882.00
2023-06-07T13:21:33.031Z,101865.00
2023-06-07T13:31:56.148Z,101885.00
2023-06-07T13:42:20.233Z,101865.00
2023-06-07T13:52:43.593Z,101819.00
2023-06-07T14:03:05.889Z,101857.00
2023-06-07T14:13:29.280Z,101845.00
2023-06-07T14:23:50.804Z,101861.00
2023-06-07T14:34:13.466Z,101832.00
2023-06-07T14:44:35.166Z,101823.00
2023-06-07T14:54:58.077Z,101809.00
2023-06-07T15:05:21.096Z,101828.00
2023-06-07T15:15:44.287Z,101823.00
2023-06-07T15:26:06.135Z,101814.00
2023-06-07T15:36:28.847Z,101821.00
2023-06-07T15:46:50.488Z,101817.00
2023-06-07T15:57:13.543Z,101796.00
2023-06-07T16:07:35.873Z,101822.00
2023-06-07T16:17:59.079Z,101831.00
2023-06-07T16:28:20.979Z,101820.00
2023-06-07T16:38:44.417Z,101825.00
2023-06-07T16:49:06.084Z,101830.00
2023-06-07T16:59:29.115Z,101821.00
2023-06-07T17:09:51.043Z,101830.00
2023-06-07T17:20:14.503Z,101830.00
2023-06-07T17:30:39.922Z,101839.00
2023-06-07T17:41:03.320Z,101846.00
2023-06-07T17:51:25.101Z,101848.00
2023-06-07T18:01:52.804Z,101857.00
2023-06-07T18:12:15.463Z,101857.00
2023-06-07T18:22:39.406Z,101874.00
2023-06-07T18:33:01.282Z,101873.00
2023-06-07T18:43:24.409Z,101906.00
2023-06-07T18:53:46.321Z,101932.00
2023-06-07T19:04:09.549Z,101949.00
2023-06-07T19:14:33.008Z,101954.00
2023-06-07T19:24:55.811Z,101968.00
2023-06-07T19:35:18.051Z,101990.00
2023-06-07T19:45:41.284Z,102000.00
2023-06-07T19:56:02.827Z,102005.00
2023-06-07T20:06:25.878Z,102011.00
2023-06-07T20:16:47.520Z,102007.00
2023-06-07T20:27:10.686Z,102003.00
2023-06-07T20:37:33.571Z,102001.00
2023-06-07T20:47:56.659Z,102017.00
2023-06-07T20:58:19.853Z,102006.00
2023-06-07T21:08:44.663Z,102011.00
2023-06-07T21:19:06.259Z,102008.00
2023-06-07T21:29:29.313Z,102011.00
2023-06-07T21:39:52.596Z,102020.00
2023-06-07T21:50:16.083Z,102023.00
2023-06-07T22:00:37.946Z,102015.00
2023-06-07T22:11:01.500Z,102028.00
2023-06-07T22:21:24.208Z,102036.00
2023-06-07T22:31:47.302Z,102031.00
2023-06-07T22:42:09.618Z,102030.00
2023-06-07T22:52:35.806Z,102025.00
2023-06-07T23:02:58.473Z,102025.00
2023-06-07T23:13:21.696Z,102022.00
2023-06-07T23:23:43.604Z,102025.00
2023-06-07T23:34:06.341Z,102029.00
2023-06-07T23:44:28.748Z,102025.00
2023-06-07T23:54:51.616Z,102026.00
